Time;durP1;ratioP1;P1;durP2;ratioP2;P2;SDS_P1;SDS_P2;PMS_P1;PMS_P2;Temp;Humidity;BMP_temperature;BMP_pressure;BME280_temperature;BME280_humidity;BME280_pressure;Samples;Min_cycle;Max_cycle;Signal;HPM_P1;HPM_P2
2022/05/13 00:00:03;;;;;;;8.68;2.90;;;;;;;;;;5091438;28;20032;-74
2022/05/13 00:02:29;;;;;;;11.68;3.05;;;;;;;;;;5083035;28;20565;-73
2022/05/13 00:04:55;;;;;;;17.33;3.72;;;;;;;;;;5086926;28;20064;-74
2022/05/13 00:07:21;;;;;;;7.10;2.60;;;;;;;;;;5086559;28;20070;-75
2022/05/13 00:10:00;;;;;;;13.15;2.90;;;;;;;;;;5085206;28;20040;-75
2022/05/13 00:12:31;;;;;;;15.95;2.90;;;;;;;;;;5089449;28;20484;-74
2022/05/13 00:14:57;;;;;;;14.55;4.07;;;;;;;;;;5090277;28;20030;-72
2022/05/13 00:17:24;;;;;;;13.00;3.15;;;;;;;;;;5087211;28;20461;-73
2022/05/13 00:19:51;;;;;;;11.70;3.28;;;;;;;;;;5089230;28;20129;-74
2022/05/13 00:22:18;;;;;;;15.15;2.75;;;;;;;;;;5086525;28;20080;-74
2022/05/13 00:24:45;;;;;;;13.25;3.63;;;;;;;;;;5087763;28;20043;-73
2022/05/13 00:27:11;;;;;;;13.10;3.05;;;;;;;;;;5090983;28;20121;-74
2022/05/13 00:29:37;;;;;;;9.00;3.30;;;;;;;;;;5081800;28;20033;-73
2022/05/13 00:32:03;;;;;;;11.98;3.80;;;;;;;;;;5080032;28;20095;-74
2022/05/13 00:34:30;;;;;;;11.35;3.33;;;;;;;;;;5085004;28;20040;-74
2022/05/13 00:36:56;;;;;;;9.75;3.65;;;;;;;;;;5088965;28;20508;-74
2022/05/13 00:39:22;;;;;;;9.35;2.70;;;;;;;;;;5088676;28;20115;-75
2022/05/13 00:41:48;;;;;;;12.55;3.00;;;;;;;;;;5089986;28;20917;-73
2022/05/13 00:44:15;;;;;;;17.50;3.50;;;;;;;;;;5082623;28;20043;-74
2022/05/13 00:46:41;;;;;;;17.10;3.33;;;;;;;;;;5085935;28;20040;-74
2022/05/13 00:49:09;;;;;;;12.82;2.95;;;;;;;;;;5087265;28;20032;-74
2022/05/13 00:51:40;;;;;;;16.35;3.30;;;;;;;;;;5079213;28;20029;-73
2022/05/13 00:54:07;;;;;;;15.43;4.00;;;;;;;;;;5075926;28;20028;-74
2022/05/13 00:56:34;;;;;;;14.70;3.90;;;;;;;;;;5089799;28;20039;-74
2022/05/13 00:59:02;;;;;;;17.77;3.35;;;;;;;;;;5087459;28;20089;-74
2022/05/13 01:01:29;;;;;;;21.35;3.40;;;;;;;;;;5088587;28;20039;-74
2022/05/13 01:04:01;;;;;;;14.45;3.97;;;;;;;;;;5087296;28;20051;-74
2022/05/13 01:06:27;;;;;;;13.63;3.15;;;;;;;;;;5090315;28;20170;-74
2022/05/13 01:08:53;;;;;;;18.92;3.65;;;;;;;;;;5086855;28;20036;-73
2022/05/13 01:11:21;;;;;;;12.80;4.13;;;;;;;;;;5086980;28;20036;-76
2022/05/13 01:13:49;;;;;;;13.00;3.55;;;;;;;;;;5087714;28;20028;-73
2022/05/13 01:16:15;;;;;;;20.70;4.38;;;;;;;;;;5085600;28;20058;-72
2022/05/13 01:18:45;;;;;;;18.88;3.70;;;;;;;;;;5084491;28;20081;-73
2022/05/13 01:21:15;;;;;;;19.52;4.43;;;;;;;;;;5089450;28;20028;-72
2022/05/13 01:23:43;;;;;;;15.05;4.10;;;;;;;;;;5086733;28;20069;-73
2022/05/13 01:26:11;;;;;;;23.05;4.30;;;;;;;;;;5090071;28;20020;-74
2022/05/13 01:28:39;;;;;;;15.45;3.97;;;;;;;;;;5087115;28;20050;-74
2022/05/13 01:31:07;;;;;;;21.35;4.50;;;;;;;;;;5089209;28;20104;-73
2022/05/13 01:33:34;;;;;;;20.58;4.90;;;;;;;;;;5086566;28;20034;-73
2022/05/13 01:36:01;;;;;;;21.63;5.10;;;;;;;;;;5088317;28;20051;-74
2022/05/13 01:38:31;;;;;;;21.65;4.35;;;;;;;;;;5083649;28;20036;-74
2022/05/13 01:40:58;;;;;;;15.35;4.07;;;;;;;;;;5081476;28;20689;-74
2022/05/13 01:43:24;;;;;;;17.08;4.88;;;;;;;;;;5086747;28;20092;-75
2022/05/13 01:45:50;;;;;;;25.38;4.93;;;;;;;;;;5087904;28;20032;-75
2022/05/13 01:48:16;;;;;;;19.10;4.57;;;;;;;;;;5086746;28;20055;-74
2022/05/13 01:50:43;;;;;;;24.85;6.65;;;;;;;;;;5089580;28;20672;-74
2022/05/13 01:53:10;;;;;;;22.50;4.63;;;;;;;;;;5086960;28;20031;-74
2022/05/13 01:55:36;;;;;;;21.98;5.00;;;;;;;;;;5085125;28;20115;-73
2022/05/13 01:58:04;;;;;;;28.60;6.20;;;;;;;;;;5087952;28;20153;-72
2022/05/13 02:00:30;;;;;;;25.77;5.57;;;;;;;;;;5087522;28;20032;-74
2022/05/13 02:05:41;;;;;;;25.55;5.60;;;;;;;;;;5088003;28;20073;-72
2022/05/13 02:08:07;;;;;;;24.73;5.90;;;;;;;;;;5086867;28;20458;-72
2022/05/13 02:10:34;;;;;;;26.27;6.00;;;;;;;;;;5085830;28;20044;-73
2022/05/13 02:13:00;;;;;;;18.63;5.45;;;;;;;;;;5086316;28;20020;-74
2022/05/13 02:15:26;;;;;;;30.50;6.00;;;;;;;;;;5092310;28;20038;-74
2022/05/13 02:17:52;;;;;;;22.67;5.43;;;;;;;;;;5068927;28;20092;-73
2022/05/13 02:20:18;;;;;;;32.92;6.88;;;;;;;;;;5088609;28;20063;-74
2022/05/13 02:22:44;;;;;;;29.35;6.72;;;;;;;;;;5088188;28;20057;-72
2022/05/13 02:25:11;;;;;;;26.27;6.65;;;;;;;;;;5088637;28;20081;-72
2022/05/13 02:27:37;;;;;;;27.25;6.15;;;;;;;;;;5084153;28;20563;-73
2022/05/13 02:30:04;;;;;;;26.67;6.43;;;;;;;;;;5088132;28;20105;-72
2022/05/13 02:32:30;;;;;;;28.45;6.28;;;;;;;;;;5100974;28;20667;-72
2022/05/13 02:34:56;;;;;;;28.25;6.55;;;;;;;;;;5089554;28;20023;-73
2022/05/13 02:37:23;;;;;;;31.95;6.13;;;;;;;;;;5091212;28;20493;-75
2022/05/13 02:39:49;;;;;;;26.05;6.10;;;;;;;;;;5092390;28;20119;-73
2022/05/13 02:42:15;;;;;;;28.35;7.18;;;;;;;;;;5090911;28;20111;-73
2022/05/13 02:44:42;;;;;;;36.63;7.05;;;;;;;;;;5087584;28;20189;-73
2022/05/13 02:47:08;;;;;;;23.67;7.43;;;;;;;;;;5085800;28;20482;-73
2022/05/13 02:49:34;;;;;;;27.40;6.68;;;;;;;;;;5091639;28;20109;-72
2022/05/13 02:52:00;;;;;;;22.33;5.63;;;;;;;;;;5092926;28;20068;-73
2022/05/13 02:54:26;;;;;;;34.20;9.02;;;;;;;;;;5089647;28;20038;-73
2022/05/13 02:56:52;;;;;;;28.33;6.15;;;;;;;;;;5089221;28;20050;-72
2022/05/13 02:59:18;;;;;;;30.52;7.28;;;;;;;;;;5085465;28;20041;-73
2022/05/13 03:01:44;;;;;;;31.38;7.07;;;;;;;;;;5089252;28;20473;-73
2022/05/13 03:04:10;;;;;;;34.30;7.30;;;;;;;;;;5089209;28;20044;-73
2022/05/13 03:06:36;;;;;;;29.33;6.65;;;;;;;;;;5092953;28;20032;-72
2022/05/13 03:09:03;;;;;;;34.72;7.13;;;;;;;;;;5090628;28;20115;-74
2022/05/13 03:11:29;;;;;;;27.33;6.57;;;;;;;;;;5090269;28;20028;-72
2022/05/13 03:13:56;;;;;;;31.70;7.00;;;;;;;;;;5090789;28;20028;-73
2022/05/13 03:16:23;;;;;;;31.75;6.72;;;;;;;;;;5082758;28;20040;-78
2022/05/13 03:18:52;;;;;;;30.15;6.97;;;;;;;;;;5089145;28;20486;-74
2022/05/13 03:21:19;;;;;;;32.45;7.50;;;;;;;;;;5091634;28;20035;-73
2022/05/13 03:23:45;;;;;;;32.15;7.15;;;;;;;;;;5089285;28;20044;-73
2022/05/13 03:26:12;;;;;;;26.20;7.78;;;;;;;;;;5089672;28;20024;-73
2022/05/13 03:28:38;;;;;;;28.70;8.32;;;;;;;;;;5089671;28;20059;-73
2022/05/13 03:31:04;;;;;;;29.35;7.82;;;;;;;;;;5069978;28;20052;-73
2022/05/13 03:33:30;;;;;;;32.67;6.13;;;;;;;;;;5089542;28;20690;-73
2022/05/13 03:35:57;;;;;;;30.90;6.72;;;;;;;;;;5088505;28;20167;-73
2022/05/13 03:38:23;;;;;;;28.30;6.25;;;;;;;;;;5090552;28;20020;-74
2022/05/13 03:40:49;;;;;;;30.27;7.07;;;;;;;;;;5089857;28;20561;-73
2022/05/13 03:43:15;;;;;;;26.05;6.78;;;;;;;;;;5090594;28;20047;-73
2022/05/13 03:45:42;;;;;;;22.75;6.53;;;;;;;;;;5076435;28;20035;-74
2022/05/13 03:48:08;;;;;;;30.73;6.00;;;;;;;;;;5088835;28;20031;-73
2022/05/13 03:50:36;;;;;;;37.33;7.57;;;;;;;;;;5090580;28;20055;-73
2022/05/13 03:53:03;;;;;;;22.77;6.28;;;;;;;;;;5087374;28;20032;-74
2022/05/13 03:55:29;;;;;;;26.27;5.85;;;;;;;;;;5083929;28;20043;-73
2022/05/13 03:57:55;;;;;;;27.05;6.28;;;;;;;;;;5086934;28;20024;-73
2022/05/13 04:00:22;;;;;;;18.92;5.40;;;;;;;;;;5090760;28;20040;-73
2022/05/13 04:02:48;;;;;;;22.35;6.22;;;;;;;;;;5086793;28;20044;-73
2022/05/13 04:10:43;;;;;;;29.98;6.63;;;;;;;;;;5090102;28;20131;-74
2022/05/13 04:16:06;;;;;;;18.98;6.30;;;;;;;;;;5086898;28;20043;-74
2022/05/13 04:18:36;;;;;;;18.05;4.88;;;;;;;;;;5078431;28;20107;-73
2022/05/13 04:21:04;;;;;;;21.67;4.53;;;;;;;;;;5089481;28;20066;-73
2022/05/13 04:23:31;;;;;;;20.40;4.90;;;;;;;;;;5087697;28;20035;-73
2022/05/13 04:25:57;;;;;;;25.85;4.43;;;;;;;;;;5090485;28;20040;-74
2022/05/13 04:28:23;;;;;;;14.70;4.13;;;;;;;;;;5088803;28;20052;-72
2022/05/13 04:30:49;;;;;;;18.98;4.57;;;;;;;;;;5089583;28;20523;-73
2022/05/13 04:33:15;;;;;;;29.73;5.35;;;;;;;;;;5086939;28;20043;-72
2022/05/13 04:35:41;;;;;;;17.13;4.47;;;;;;;;;;5089505;28;20118;-73
2022/05/13 04:38:08;;;;;;;27.67;5.05;;;;;;;;;;5083441;28;20036;-75
2022/05/13 04:40:34;;;;;;;17.95;5.07;;;;;;;;;;5088307;28;20657;-73
2022/05/13 04:43:00;;;;;;;17.75;5.00;;;;;;;;;;5089885;28;20062;-73
2022/05/13 04:45:31;;;;;;;23.27;4.97;;;;;;;;;;5084914;28;20028;-73
2022/05/13 04:48:17;;;;;;;20.77;4.72;;;;;;;;;;5087315;28;20493;-73
2022/05/13 04:50:53;;;;;;;20.50;5.75;;;;;;;;;;5089975;28;20050;-73
2022/05/13 04:53:25;;;;;;;21.20;5.68;;;;;;;;;;5085517;28;20032;-74
2022/05/13 04:55:52;;;;;;;17.58;4.95;;;;;;;;;;5087252;28;20059;-73
2022/05/13 04:58:18;;;;;;;25.55;5.82;;;;;;;;;;5087062;28;20028;-74
2022/05/13 05:00:44;;;;;;;15.35;5.50;;;;;;;;;;5065649;28;20085;-74
2022/05/13 05:03:11;;;;;;;24.67;6.72;;;;;;;;;;5084738;28;20122;-73
2022/05/13 05:05:37;;;;;;;19.67;5.43;;;;;;;;;;5089615;28;20160;-72
2022/05/13 05:08:03;;;;;;;15.73;4.97;;;;;;;;;;5087313;28;20051;-73
2022/05/13 05:10:29;;;;;;;15.93;4.03;;;;;;;;;;5081275;28;20044;-74
2022/05/13 05:12:55;;;;;;;19.45;4.35;;;;;;;;;;5079262;28;20113;-74
2022/05/13 05:15:21;;;;;;;23.45;4.20;;;;;;;;;;5083929;28;20064;-74
2022/05/13 05:17:47;;;;;;;16.55;4.65;;;;;;;;;;5081367;28;20024;-74
2022/05/13 05:20:15;;;;;;;14.18;3.40;;;;;;;;;;5083723;28;20148;-74
2022/05/13 05:22:42;;;;;;;17.40;4.32;;;;;;;;;;5083851;28;20606;-74
2022/05/13 05:25:08;;;;;;;19.52;4.15;;;;;;;;;;5080174;28;20050;-73
2022/05/13 05:27:36;;;;;;;14.93;3.47;;;;;;;;;;5080699;28;20439;-74
2022/05/13 05:30:03;;;;;;;18.05;4.03;;;;;;;;;;5083468;28;20038;-74
2022/05/13 05:32:29;;;;;;;12.73;4.32;;;;;;;;;;5085066;28;20028;-73
2022/05/13 05:34:55;;;;;;;21.13;5.68;;;;;;;;;;5084788;28;20062;-73
2022/05/13 05:37:21;;;;;;;17.75;3.17;;;;;;;;;;5083704;28;20091;-75
2022/05/13 05:39:47;;;;;;;14.32;2.92;;;;;;;;;;5083386;28;20549;-75
2022/05/13 05:42:13;;;;;;;11.23;3.03;;;;;;;;;;5083141;28;20096;-74
2022/05/13 05:44:39;;;;;;;19.15;3.72;;;;;;;;;;5084248;28;20056;-74
2022/05/13 05:47:05;;;;;;;12.20;2.80;;;;;;;;;;5079010;28;20482;-72
2022/05/13 05:49:32;;;;;;;17.50;3.22;;;;;;;;;;5080944;28;20032;-73
2022/05/13 05:51:58;;;;;;;14.35;3.08;;;;;;;;;;5081011;28;20033;-73
2022/05/13 05:57:14;;;;;;;23.17;4.18;;;;;;;;;;5085456;28;20549;-73
2022/05/13 05:59:41;;;;;;;13.55;2.55;;;;;;;;;;5082971;28;20088;-75
2022/05/13 06:02:07;;;;;;;11.85;2.50;;;;;;;;;;5082948;28;20050;-72
2022/05/13 06:04:35;;;;;;;13.15;2.80;;;;;;;;;;5083116;28;20501;-75
2022/05/13 06:07:01;;;;;;;12.18;3.03;;;;;;;;;;5088502;28;20028;-73
2022/05/13 06:09:28;;;;;;;9.77;2.30;;;;;;;;;;5089328;28;20040;-73
2022/05/13 06:11:54;;;;;;;13.60;3.85;;;;;;;;;;5089500;28;20504;-73
2022/05/13 06:14:20;;;;;;;11.02;2.75;;;;;;;;;;5088566;28;20057;-73
2022/05/13 06:16:46;;;;;;;10.15;2.38;;;;;;;;;;5086499;28;20024;-73
2022/05/13 06:19:12;;;;;;;12.55;2.30;;;;;;;;;;5089630;28;20493;-74
2022/05/13 06:21:38;;;;;;;10.35;2.45;;;;;;;;;;5088659;28;20119;-73
2022/05/13 06:24:05;;;;;;;16.58;3.30;;;;;;;;;;5089840;28;20075;-74
2022/05/13 06:26:31;;;;;;;16.88;2.58;;;;;;;;;;5071537;28;20025;-75
2022/05/13 06:28:58;;;;;;;11.05;2.45;;;;;;;;;;5089304;28;20033;-75
2022/05/13 06:31:24;;;;;;;23.55;3.72;;;;;;;;;;5072118;28;20103;-73
2022/05/13 06:33:51;;;;;;;9.55;2.20;;;;;;;;;;5085149;28;20039;-74
2022/05/13 06:36:17;;;;;;;11.32;2.05;;;;;;;;;;5080693;28;20111;-74
2022/05/13 06:38:43;;;;;;;9.57;2.03;;;;;;;;;;5083710;28;20439;-74
2022/05/13 06:41:09;;;;;;;11.15;2.67;;;;;;;;;;5081921;28;20047;-76
2022/05/13 06:43:35;;;;;;;14.50;2.60;;;;;;;;;;5082838;28;20024;-75
2022/05/13 06:46:01;;;;;;;12.60;2.17;;;;;;;;;;5081752;28;20040;-76
2022/05/13 06:48:28;;;;;;;17.40;2.50;;;;;;;;;;5081978;28;20142;-75
2022/05/13 06:50:54;;;;;;;13.75;2.30;;;;;;;;;;5082980;28;20051;-74
2022/05/13 06:53:21;;;;;;;10.15;2.30;;;;;;;;;;5066961;28;20063;-73
2022/05/13 06:55:47;;;;;;;11.05;2.58;;;;;;;;;;5080606;28;20043;-71
2022/05/13 06:58:14;;;;;;;15.23;2.60;;;;;;;;;;5080145;28;20035;-73
2022/05/13 07:00:40;;;;;;;12.07;2.20;;;;;;;;;;5079826;28;20073;-74
2022/05/13 07:03:07;;;;;;;14.85;2.97;;;;;;;;;;5082425;28;20051;-71
2022/05/13 07:05:33;;;;;;;12.23;2.55;;;;;;;;;;5079886;28;20036;-73
2022/05/13 07:07:59;;;;;;;13.63;2.60;;;;;;;;;;5080118;28;20041;-75
2022/05/13 07:10:25;;;;;;;13.57;2.60;;;;;;;;;;5081515;28;20093;-76
2022/05/13 07:12:51;;;;;;;14.63;3.38;;;;;;;;;;5080303;28;20077;-73
2022/05/13 07:15:19;;;;;;;10.77;2.88;;;;;;;;;;5083450;28;20149;-72
2022/05/13 07:17:45;;;;;;;13.80;3.30;;;;;;;;;;5085133;28;20055;-73
2022/05/13 07:20:12;;;;;;;8.82;2.40;;;;;;;;;;5086220;28;20039;-70
2022/05/13 07:22:38;;;;;;;11.93;2.40;;;;;;;;;;5084290;28;20115;-74
2022/05/13 07:25:04;;;;;;;12.55;2.20;;;;;;;;;;5065184;28;20119;-73
2022/05/13 07:27:30;;;;;;;10.38;2.08;;;;;;;;;;5084105;28;20065;-73
2022/05/13 07:29:57;;;;;;;13.90;2.10;;;;;;;;;;5085368;28;20055;-73
2022/05/13 07:32:23;;;;;;;11.35;2.65;;;;;;;;;;5088192;28;20036;-73
2022/05/13 07:34:49;;;;;;;13.05;2.10;;;;;;;;;;5084894;28;20035;-72
2022/05/13 07:37:15;;;;;;;16.33;2.38;;;;;;;;;;5085738;28;20039;-73
2022/05/13 07:42:25;;;;;;;14.40;2.22;;;;;;;;;;5085339;28;20945;-72
2022/05/13 07:44:51;;;;;;;10.57;2.17;;;;;;;;;;5086259;28;20122;-73
2022/05/13 07:47:19;;;;;;;12.68;1.98;;;;;;;;;;5081316;28;20051;-72
2022/05/13 07:49:45;;;;;;;12.23;2.28;;;;;;;;;;5077767;28;20028;-73
2022/05/13 07:52:11;;;;;;;9.82;2.65;;;;;;;;;;5086001;28;20032;-74
2022/05/13 07:54:38;;;;;;;9.85;2.03;;;;;;;;;;5082616;28;20401;-73
2022/05/13 07:57:04;;;;;;;8.93;1.77;;;;;;;;;;5082396;28;20244;-72
2022/05/13 07:59:32;;;;;;;13.27;2.17;;;;;;;;;;5083358;28;20132;-72
2022/05/13 08:01:58;;;;;;;10.75;2.13;;;;;;;;;;5084327;28;20059;-72
2022/05/13 08:04:24;;;;;;;12.32;2.20;;;;;;;;;;5090339;28;20393;-77
2022/05/13 08:06:51;;;;;;;7.07;1.80;;;;;;;;;;5089957;28;20501;-74
2022/05/13 08:09:17;;;;;;;14.00;2.00;;;;;;;;;;5088498;28;20052;-72
2022/05/13 08:11:44;;;;;;;11.15;1.80;;;;;;;;;;5089460;28;20476;-71
2022/05/13 08:14:11;;;;;;;7.95;1.85;;;;;;;;;;5089713;28;20040;-71
2022/05/13 08:16:37;;;;;;;20.27;3.50;;;;;;;;;;5086592;28;20024;-72
2022/05/13 08:19:04;;;;;;;14.70;2.20;;;;;;;;;;5091092;28;20040;-73
2022/05/13 08:21:30;;;;;;;13.25;2.13;;;;;;;;;;5089971;28;20119;-73
2022/05/13 08:23:56;;;;;;;9.93;2.00;;;;;;;;;;5090483;28;20051;-72
2022/05/13 08:26:22;;;;;;;19.48;3.05;;;;;;;;;;5091310;28;20100;-73
2022/05/13 08:28:48;;;;;;;9.75;1.55;;;;;;;;;;5087699;28;20024;-73
2022/05/13 08:31:15;;;;;;;11.23;1.92;;;;;;;;;;5087244;28;20024;-72
2022/05/13 08:33:41;;;;;;;11.00;2.58;;;;;;;;;;5088331;28;20319;-73
2022/05/13 08:36:07;;;;;;;11.10;2.30;;;;;;;;;;5087152;28;20501;-72
2022/05/13 08:38:36;;;;;;;9.93;2.05;;;;;;;;;;5087295;28;20039;-71
2022/05/13 08:41:09;;;;;;;11.77;1.63;;;;;;;;;;5084703;28;20115;-72
2022/05/13 08:43:47;;;;;;;10.05;1.60;;;;;;;;;;5090423;28;20028;-72
2022/05/13 08:46:13;;;;;;;8.63;1.83;;;;;;;;;;5086551;28;20046;-73
2022/05/13 08:48:46;;;;;;;6.38;1.50;;;;;;;;;;5083577;28;20098;-73
2022/05/13 08:51:15;;;;;;;8.60;1.88;;;;;;;;;;5084175;28;20055;-77
2022/05/13 08:53:57;;;;;;;10.15;1.35;;;;;;;;;;5084767;28;20048;-71
2022/05/13 08:56:26;;;;;;;8.75;1.75;;;;;;;;;;5083170;28;20480;-71
2022/05/13 08:59:07;;;;;;;10.18;1.98;;;;;;;;;;5085092;28;20051;-72
2022/05/13 09:01:43;;;;;;;6.55;1.63;;;;;;;;;;5082281;28;20024;-73
2022/05/13 09:04:14;;;;;;;6.18;1.70;;;;;;;;;;5082134;28;20037;-75
2022/05/13 09:06:52;;;;;;;10.30;2.00;;;;;;;;;;5083101;28;20024;-73
2022/05/13 09:09:19;;;;;;;12.63;1.85;;;;;;;;;;5085175;28;20068;-73
2022/05/13 09:11:51;;;;;;;12.00;1.73;;;;;;;;;;5082674;28;20036;-74
2022/05/13 09:14:35;;;;;;;10.30;1.88;;;;;;;;;;5084400;28;20032;-73
2022/05/13 09:17:27;;;;;;;8.38;1.77;;;;;;;;;;5084273;28;20039;-73
2022/05/13 09:19:53;;;;;;;5.72;1.77;;;;;;;;;;5081483;28;20038;-74
2022/05/13 09:22:19;;;;;;;11.55;1.90;;;;;;;;;;5082389;28;20513;-73
2022/05/13 09:24:45;;;;;;;9.05;1.90;;;;;;;;;;5076097;28;20028;-75
2022/05/13 09:27:12;;;;;;;10.65;1.98;;;;;;;;;;5080988;28;20032;-74
2022/05/13 09:29:42;;;;;;;10.00;2.10;;;;;;;;;;5081488;28;20114;-74
2022/05/13 09:32:13;;;;;;;6.70;1.85;;;;;;;;;;5080593;28;20103;-73
2022/05/13 09:34:46;;;;;;;11.82;2.40;;;;;;;;;;5082630;28;20028;-72
2022/05/13 09:37:20;;;;;;;14.13;1.80;;;;;;;;;;5097969;28;20852;-77
2022/05/13 09:39:48;;;;;;;9.27;2.00;;;;;;;;;;5084628;28;20434;-73
2022/05/13 09:42:22;;;;;;;6.95;1.67;;;;;;;;;;5080406;28;20111;-74
2022/05/13 09:44:48;;;;;;;7.63;1.70;;;;;;;;;;5082341;28;20555;-74
2022/05/13 09:47:17;;;;;;;12.88;1.92;;;;;;;;;;5084836;28;20202;-76
2022/05/13 09:49:46;;;;;;;9.35;2.00;;;;;;;;;;5082128;28;20080;-72
2022/05/13 09:52:15;;;;;;;7.90;2.05;;;;;;;;;;5080883;28;20020;-72
2022/05/13 09:54:42;;;;;;;11.77;2.00;;;;;;;;;;5082001;28;20025;-74
2022/05/13 09:57:12;;;;;;;7.47;2.00;;;;;;;;;;5083070;28;20020;-74
2022/05/13 09:59:40;;;;;;;9.85;2.53;;;;;;;;;;5085955;28;20057;-73
2022/05/13 10:02:21;;;;;;;15.18;3.50;;;;;;;;;;5084335;28;20023;-72
2022/05/13 10:04:51;;;;;;;8.88;1.80;;;;;;;;;;5083990;28;20067;-73
2022/05/13 10:07:18;;;;;;;14.05;2.40;;;;;;;;;;5082068;28;20048;-74
2022/05/13 10:15:30;;;;;;;7.15;1.77;;;;;;;;;;5081228;28;20085;-72
2022/05/13 10:18:01;;;;;;;10.20;1.95;;;;;;;;;;5082550;28;20048;-72
2022/05/13 10:20:33;;;;;;;12.02;1.98;;;;;;;;;;5084235;28;20120;-72
2022/05/13 10:23:03;;;;;;;11.13;2.08;;;;;;;;;;5087055;28;20024;-75
2022/05/13 10:25:29;;;;;;;;;;;;;;;;;;5085344;28;20115;-73
2022/05/13 10:27:57;;;;;;;8.40;2.10;;;;;;;;;;5082009;28;20057;-72
2022/05/13 10:30:42;;;;;;;13.60;2.72;;;;;;;;;;5078985;28;20028;-71
2022/05/13 10:33:25;;;;;;;15.30;2.22;;;;;;;;;;5081642;28;20185;-73
2022/05/13 10:36:10;;;;;;;14.00;2.42;;;;;;;;;;5078387;28;20533;-74
2022/05/13 10:38:53;;;;;;;17.00;2.33;;;;;;;;;;5086217;28;20477;-74
2022/05/13 10:41:25;;;;;;;7.22;1.90;;;;;;;;;;5075789;28;20024;-75
2022/05/13 10:43:53;;;;;;;13.38;2.28;;;;;;;;;;5082629;28;20032;-75
2022/05/13 10:46:24;;;;;;;10.65;2.22;;;;;;;;;;5081770;28;20039;-73
2022/05/13 10:48:53;;;;;;;12.80;2.17;;;;;;;;;;5084201;28;20801;-74
2022/05/13 10:51:21;;;;;;;13.27;2.60;;;;;;;;;;5079936;28;20032;-74
2022/05/13 10:53:54;;;;;;;6.90;1.73;;;;;;;;;;5087406;28;20024;-71
2022/05/13 10:56:20;;;;;;;10.77;2.72;;;;;;;;;;5083120;28;20024;-71
2022/05/13 10:58:58;;;;;;;12.45;2.67;;;;;;;;;;5084979;28;20024;-72
2022/05/13 11:01:39;;;;;;;8.48;1.88;;;;;;;;;;5085964;28;20030;-73
2022/05/13 11:04:11;;;;;;;9.07;2.30;;;;;;;;;;5085951;28;20127;-73
2022/05/13 11:06:57;;;;;;;10.98;2.30;;;;;;;;;;5085621;28;20028;-77
2022/05/13 11:09:26;;;;;;;8.63;1.75;;;;;;;;;;5079146;28;20044;-71
2022/05/13 11:11:54;;;;;;;11.40;2.20;;;;;;;;;;5082955;28;20047;-73
2022/05/13 11:14:32;;;;;;;8.18;2.13;;;;;;;;;;5087429;28;20114;-72
2022/05/13 11:17:30;;;;;;;6.85;2.00;;;;;;;;;;5086996;28;20027;-74
2022/05/13 11:20:09;;;;;;;12.00;2.00;;;;;;;;;;5050341;28;20036;-75
2022/05/13 11:22:40;;;;;;;13.00;2.10;;;;;;;;;;5080564;28;20043;-75
2022/05/13 11:27:54;;;;;;;10.18;2.17;;;;;;;;;;5085785;28;20082;-76
2022/05/13 11:30:27;;;;;;;9.10;2.03;;;;;;;;;;5082847;28;20032;-73
2022/05/13 11:32:57;;;;;;;6.65;1.80;;;;;;;;;;5084847;28;20031;-72
2022/05/13 11:35:29;;;;;;;7.28;1.90;;;;;;;;;;5084960;28;20102;-73
2022/05/13 11:37:57;;;;;;;6.90;2.08;;;;;;;;;;5089096;28;20439;-72
2022/05/13 11:40:29;;;;;;;10.48;2.45;;;;;;;;;;5084069;28;20054;-72
2022/05/13 11:43:19;;;;;;;6.97;1.88;;;;;;;;;;5083873;28;20040;-73
2022/05/13 11:45:55;;;;;;;10.63;2.10;;;;;;;;;;5088193;28;20470;-72
2022/05/13 11:48:27;;;;;;;9.98;2.00;;;;;;;;;;5088530;28;20044;-74
2022/05/13 11:51:00;;;;;;;10.70;2.20;;;;;;;;;;5083736;28;20032;-74
2022/05/13 11:53:42;;;;;;;7.50;1.75;;;;;;;;;;5090165;28;20038;-74
2022/05/13 11:56:30;;;;;;;8.20;1.70;;;;;;;;;;5081457;28;20044;-73
2022/05/13 11:58:57;;;;;;;8.50;1.98;;;;;;;;;;5091365;28;20365;-77
2022/05/13 12:01:38;;;;;;;13.85;2.65;;;;;;;;;;5091505;28;20028;-75
2022/05/13 12:04:13;;;;;;;6.68;1.85;;;;;;;;;;5089531;28;20116;-73
2022/05/13 12:06:52;;;;;;;10.00;1.77;;;;;;;;;;5072693;28;20028;-76
2022/05/13 12:09:23;;;;;;;8.93;2.20;;;;;;;;;;5089274;28;20047;-75
2022/05/13 12:12:04;;;;;;;7.80;1.77;;;;;;;;;;5091324;28;20485;-75
2022/05/13 12:14:43;;;;;;;6.38;2.20;;;;;;;;;;5089977;28;20020;-71
2022/05/13 12:17:16;;;;;;;7.32;1.60;;;;;;;;;;5089272;28;20027;-72
2022/05/13 12:20:05;;;;;;;6.93;2.17;;;;;;;;;;5088493;28;20038;-75
2022/05/13 12:22:31;;;;;;;5.40;1.50;;;;;;;;;;5085266;28;20050;-73
2022/05/13 12:25:02;;;;;;;12.93;2.00;;;;;;;;;;5087013;28;20481;-74
2022/05/13 12:27:30;;;;;;;6.95;2.08;;;;;;;;;;5081170;28;20028;-74
2022/05/13 12:29:59;;;;;;;16.65;2.03;;;;;;;;;;5082632;28;20028;-74
2022/05/13 12:32:36;;;;;;;7.63;1.73;;;;;;;;;;5084389;28;21984;-72
2022/05/13 12:37:46;;;;;;;16.77;2.33;;;;;;;;;;5084511;28;20050;-72
2022/05/13 12:40:12;;;;;;;34.47;4.13;;;;;;;;;;5082310;28;20028;-73
2022/05/13 12:42:44;;;;;;;36.60;3.60;;;;;;;;;;5084894;28;20036;-72
2022/05/13 12:45:12;;;;;;;15.15;1.85;;;;;;;;;;5083432;28;20378;-74
2022/05/13 12:47:56;;;;;;;3.55;1.15;;;;;;;;;;5083470;28;20028;-75
2022/05/13 12:50:28;;;;;;;7.28;1.70;;;;;;;;;;5083101;28;20601;-73
2022/05/13 12:52:55;;;;;;;8.32;1.85;;;;;;;;;;5082541;28;20031;-74
2022/05/13 12:55:22;;;;;;;11.65;1.80;;;;;;;;;;5083249;28;20115;-74
2022/05/13 12:58:05;;;;;;;10.95;1.98;;;;;;;;;;5082128;28;20024;-74
2022/05/13 13:00:43;;;;;;;7.60;1.42;;;;;;;;;;5087521;28;20108;-76
2022/05/13 13:03:12;;;;;;;8.75;2.22;;;;;;;;;;5090842;28;20450;-75
2022/05/13 13:05:39;;;;;;;4.88;1.30;;;;;;;;;;5090371;28;20047;-75
2022/05/13 13:08:05;;;;;;;7.07;1.63;;;;;;;;;;5089455;28;20028;-79
2022/05/13 13:10:32;;;;;;;9.55;1.90;;;;;;;;;;5087173;28;20036;-73
2022/05/13 13:13:15;;;;;;;8.02;2.00;;;;;;;;;;5090522;28;20028;-71
2022/05/13 13:15:47;;;;;;;7.30;1.60;;;;;;;;;;5090065;28;20031;-73
2022/05/13 13:18:13;;;;;;;6.85;1.77;;;;;;;;;;5090395;28;20059;-73
2022/05/13 13:20:48;;;;;;;15.63;1.70;;;;;;;;;;5088780;28;20032;-76
2022/05/13 13:23:15;;;;;;;11.50;1.50;;;;;;;;;;5085699;28;20035;-73
2022/05/13 13:25:46;;;;;;;8.43;1.90;;;;;;;;;;5088935;28;20020;-74
2022/05/13 13:28:13;;;;;;;9.95;2.25;;;;;;;;;;5090332;28;20191;-76
2022/05/13 13:30:42;;;;;;;14.18;2.53;;;;;;;;;;5088780;28;20547;-73
2022/05/13 13:33:09;;;;;;;11.13;1.92;;;;;;;;;;5083531;28;20051;-72
2022/05/13 13:35:36;;;;;;;9.00;2.05;;;;;;;;;;5085521;28;20028;-74
2022/05/13 13:38:03;;;;;;;11.93;2.50;;;;;;;;;;5083245;28;20035;-74
2022/05/13 13:40:40;;;;;;;13.48;2.05;;;;;;;;;;5080834;28;20020;-73
2022/05/13 13:43:21;;;;;;;10.00;2.33;;;;;;;;;;5081104;28;20027;-73
2022/05/13 13:45:53;;;;;;;13.15;2.10;;;;;;;;;;5084655;28;20031;-73
2022/05/13 13:48:29;;;;;;;32.92;2.80;;;;;;;;;;5084536;28;20032;-73
2022/05/13 13:50:56;;;;;;;51.00;4.90;;;;;;;;;;5082518;28;20024;-73
2022/05/13 13:53:30;;;;;;;10.43;1.90;;;;;;;;;;5082560;28;20036;-75
2022/05/13 13:55:59;;;;;;;9.55;2.00;;;;;;;;;;5082281;28;20032;-74
2022/05/13 13:58:28;;;;;;;17.85;2.85;;;;;;;;;;5080682;28;20081;-75
2022/05/13 14:00:54;;;;;;;12.93;2.10;;;;;;;;;;5087769;28;20035;-73
2022/05/13 14:03:22;;;;;;;10.82;2.35;;;;;;;;;;5086885;28;20112;-76
2022/05/13 14:05:55;;;;;;;10.40;2.30;;;;;;;;;;5084526;28;20135;-72
2022/05/13 14:08:22;;;;;;;10.27;2.42;;;;;;;;;;5085655;28;20058;-74
2022/05/13 14:10:50;;;;;;;11.15;2.03;;;;;;;;;;5084544;28;20034;-74
2022/05/13 14:13:18;;;;;;;14.15;1.92;;;;;;;;;;5080179;28;20513;-78
2022/05/13 14:15:49;;;;;;;17.33;2.72;;;;;;;;;;5084168;28;20026;-77
2022/05/13 14:18:17;;;;;;;10.48;2.03;;;;;;;;;;5085097;28;20101;-73
2022/05/13 14:20:44;;;;;;;6.50;2.20;;;;;;;;;;5083903;28;20485;-73
2022/05/13 14:23:28;;;;;;;11.68;1.98;;;;;;;;;;5086047;28;20100;-74
2022/05/13 14:25:56;;;;;;;8.55;1.95;;;;;;;;;;5082302;28;20048;-75
2022/05/13 14:28:30;;;;;;;7.43;2.22;;;;;;;;;;5081763;28;20112;-75
2022/05/13 14:31:04;;;;;;;8.45;1.95;;;;;;;;;;5070440;28;20043;-74
2022/05/13 14:33:30;;;;;;;12.48;2.65;;;;;;;;;;5068008;28;20120;-75
2022/05/13 14:36:02;;;;;;;8.68;2.35;;;;;;;;;;5073738;28;20055;-73
2022/05/13 14:41:34;;;;;;;11.10;2.50;;;;;;;;;;5082572;28;20035;-74
2022/05/13 14:44:00;;;;;;;11.15;2.45;;;;;;;;;;5083473;28;20023;-74
2022/05/13 14:46:28;;;;;;;8.45;2.30;;;;;;;;;;5084039;28;20036;-72
2022/05/13 14:48:54;;;;;;;12.43;2.60;;;;;;;;;;5085594;28;20034;-75
2022/05/13 14:51:24;;;;;;;11.18;2.28;;;;;;;;;;5083128;28;20044;-73
2022/05/13 14:53:58;;;;;;;10.70;2.70;;;;;;;;;;5082715;28;20069;-74
2022/05/13 14:56:26;;;;;;;8.43;2.60;;;;;;;;;;5083414;28;20611;-72
2022/05/13 14:58:57;;;;;;;11.20;2.00;;;;;;;;;;5084994;28;20036;-74
2022/05/13 15:01:25;;;;;;;10.55;2.28;;;;;;;;;;5084321;28;20043;-76
2022/05/13 15:03:54;;;;;;;10.38;2.30;;;;;;;;;;5079642;28;20040;-75
2022/05/13 15:06:22;;;;;;;10.65;2.00;;;;;;;;;;5085572;28;20032;-76
2022/05/13 15:08:52;;;;;;;9.55;2.10;;;;;;;;;;5087952;28;20025;-74
2022/05/13 15:11:23;;;;;;;11.82;2.83;;;;;;;;;;5092981;28;20105;-73
2022/05/13 15:13:51;;;;;;;7.18;2.25;;;;;;;;;;5088177;28;20036;-73